createdAt,value
2023-03-29T00:02:30.980Z,19.30
2023-03-29T00:05:02.111Z,20.40
2023-03-29T00:07:30.097Z,19.27
2023-03-29T00:09:59.459Z,16.77
2023-03-29T00:12:27.118Z,14.48
2023-03-29T00:14:54.940Z,12.23
2023-03-29T00:17:22.556Z,18.38
2023-03-29T00:19:50.513Z,16.67
2023-03-29T00:22:19.402Z,15.98
2023-03-29T00:24:48.982Z,16.42
2023-03-29T00:27:17.482Z,16.37
2023-03-29T00:29:45.052Z,16.65
2023-03-29T00:32:13.177Z,14.70
2023-03-29T00:34:42.748Z,18.58
2023-03-29T00:37:10.562Z,15.40
2023-03-29T00:39:42.116Z,15.23
2023-03-29T00:42:12.737Z,20.00
2023-03-29T00:45:03.889Z,16.35
2023-03-29T00:47:33.790Z,17.05
2023-03-29T00:50:02.998Z,14.70
2023-03-29T00:52:32.213Z,17.23
2023-03-29T00:55:03.811Z,19.55
2023-03-29T00:57:32.518Z,11.30
2023-03-29T01:00:01.080Z,18.38
2023-03-29T01:02:29.694Z,12.55
2023-03-29T01:05:01.231Z,14.53
2023-03-29T01:07:30.873Z,16.02
2023-03-29T01:10:01.832Z,14.82
2023-03-29T01:12:33.310Z,16.15
2023-03-29T01:15:04.223Z,16.58
2023-03-29T01:17:33.172Z,18.77
2023-03-29T01:20:08.002Z,15.63
2023-03-29T01:22:40.573Z,17.75
2023-03-29T01:25:11.682Z,13.77
2023-03-29T01:27:53.052Z,17.00
2023-03-29T01:30:22.566Z,15.07
2023-03-29T01:32:56.303Z,14.45
2023-03-29T01:35:26.184Z,10.50
2023-03-29T01:37:56.853Z,13.23
2023-03-29T01:40:27.272Z,11.90
2023-03-29T01:42:58.772Z,11.80
2023-03-29T01:45:31.077Z,16.88
2023-03-29T01:48:01.076Z,15.70
2023-03-29T01:50:34.562Z,15.35
2023-03-29T01:53:04.948Z,15.07
2023-03-29T01:55:33.543Z,17.73
2023-03-29T01:58:04.524Z,10.05
2023-03-29T02:00:34.272Z,15.40
2023-03-29T02:03:04.474Z,15.77
2023-03-29T02:05:32.368Z,11.60
2023-03-29T02:08:01.193Z,14.67
2023-03-29T02:10:29.090Z,15.65
2023-03-29T02:12:56.911Z,10.02
2023-03-29T02:15:25.927Z,13.32
2023-03-29T02:17:54.670Z,12.80
2023-03-29T02:20:24.930Z,13.50
2023-03-29T02:22:56.126Z,14.18
2023-03-29T02:25:24.535Z,12.63
2023-03-29T02:27:52.986Z,12.70
2023-03-29T02:30:21.772Z,17.20
2023-03-29T02:32:53.627Z,16.17
2023-03-29T02:35:23.356Z,13.77
2023-03-29T02:37:54.647Z,13.25
2023-03-29T02:40:22.882Z,8.05
2023-03-29T02:42:50.766Z,11.70
2023-03-29T02:45:19.525Z,7.40
2023-03-29T02:47:49.632Z,14.02
2023-03-29T02:50:18.965Z,10.82
2023-03-29T02:52:52.321Z,12.63
2023-03-29T02:55:20.285Z,9.70
2023-03-29T02:57:48.007Z,10.53
2023-03-29T03:00:20.316Z,9.02
2023-03-29T03:02:48.338Z,8.88
2023-03-29T03:05:16.544Z,11.13
2023-03-29T03:07:46.242Z,7.03
2023-03-29T03:10:13.828Z,8.47
2023-03-29T03:12:41.420Z,8.68
2023-03-29T03:15:09.738Z,9.68
2023-03-29T03:17:40.066Z,7.25
2023-03-29T03:20:12.816Z,11.35
2023-03-29T03:22:41.417Z,8.97
2023-03-29T03:25:14.627Z,11.98
2023-03-29T03:27:42.378Z,9.48
2023-03-29T03:30:10.995Z,8.85
2023-03-29T03:32:38.736Z,11.45
2023-03-29T03:35:07.600Z,9.77
2023-03-29T03:37:35.692Z,12.30
2023-03-29T03:40:05.365Z,8.18
2023-03-29T03:42:34.231Z,11.05
2023-03-29T03:45:01.816Z,7.93
2023-03-29T03:47:29.603Z,9.97
2023-03-29T03:49:57.347Z,10.93
2023-03-29T03:52:25.424Z,8.93
2023-03-29T03:54:53.130Z,9.70
2023-03-29T03:57:20.740Z,7.65
2023-03-29T03:59:50.527Z,8.17
2023-03-29T04:02:18.198Z,10.55
2023-03-29T04:04:46.301Z,9.00
2023-03-29T04:07:14.796Z,10.07
2023-03-29T04:09:42.368Z,8.38
2023-03-29T04:12:11.227Z,7.13
2023-03-29T04:14:42.597Z,10.73
2023-03-29T04:17:11.737Z,7.70
2023-03-29T04:19:39.242Z,10.27
2023-03-29T04:22:06.877Z,11.18
2023-03-29T04:24:34.431Z,8.07
2023-03-29T04:27:02.019Z,6.43
2023-03-29T04:29:29.781Z,8.75
2023-03-29T04:31:57.723Z,9.48
2023-03-29T04:34:27.031Z,10.07
2023-03-29T04:36:54.830Z,9.40
2023-03-29T04:39:22.491Z,10.25
2023-03-29T04:41:50.085Z,7.35
2023-03-29T04:44:17.828Z,8.73
2023-03-29T04:46:45.562Z,8.43
2023-03-29T04:49:13.400Z,8.93
2023-03-29T04:51:42.474Z,5.55
2023-03-29T04:54:10.314Z,8.40
2023-03-29T04:56:37.971Z,8.30
2023-03-29T04:59:05.930Z,9.07
2023-03-29T05:01:33.647Z,9.57
2023-03-29T05:04:01.255Z,7.00
2023-03-29T05:06:29.805Z,7.32
2023-03-29T05:08:59.032Z,9.30
2023-03-29T05:11:27.567Z,7.47
2023-03-29T05:13:55.865Z,9.37
2023-03-29T05:16:26.465Z,6.55
2023-03-29T05:18:55.354Z,12.32
2023-03-29T05:21:24.676Z,7.70
2023-03-29T05:23:52.266Z,8.05
2023-03-29T05:26:22.312Z,6.97
2023-03-29T05:28:49.921Z,6.68
2023-03-29T05:31:17.675Z,9.05
2023-03-29T05:33:45.411Z,8.85
2023-03-29T05:36:15.010Z,6.85
2023-03-29T05:38:45.127Z,14.93
2023-03-29T05:41:12.659Z,10.55
2023-03-29T05:43:41.930Z,10.65
2023-03-29T05:46:09.775Z,10.75
2023-03-29T05:48:37.398Z,7.15
2023-03-29T05:51:05.342Z,9.33
2023-03-29T05:53:33.283Z,7.88
2023-03-29T05:56:01.079Z,11.63
2023-03-29T05:58:29.102Z,10.48
2023-03-29T06:01:00.499Z,8.30
2023-03-29T06:03:28.460Z,8.17
2023-03-29T06:05:57.360Z,6.88
2023-03-29T06:08:26.162Z,8.43
2023-03-29T06:10:59.673Z,11.60
2023-03-29T06:13:28.323Z,12.57
2023-03-29T06:15:55.904Z,6.33
2023-03-29T06:18:24.972Z,7.00
2023-03-29T06:20:53.080Z,7.88
2023-03-29T06:23:21.271Z,6.97
2023-03-29T06:25:51.732Z,11.70
2023-03-29T06:28:19.535Z,9.57
2023-03-29T06:30:47.239Z,12.80
2023-03-29T06:33:15.992Z,9.85
2023-03-29T06:35:47.027Z,10.00
2023-03-29T06:38:15.940Z,11.45
2023-03-29T06:40:44.737Z,14.20
2023-03-29T06:43:13.907Z,12.75
2023-03-29T06:45:41.451Z,13.15
2023-03-29T06:48:09.104Z,13.02
2023-03-29T06:50:36.863Z,9.82
2023-03-29T06:53:05.806Z,10.77
2023-03-29T06:55:33.419Z,10.00
2023-03-29T06:58:02.706Z,13.07
2023-03-29T07:00:30.630Z,9.05
2023-03-29T07:03:00.828Z,11.15
2023-03-29T07:05:30.261Z,9.87
2023-03-29T07:08:00.318Z,11.93
2023-03-29T07:10:32.245Z,8.43
2023-03-29T07:13:00.626Z,10.07
2023-03-29T07:15:28.844Z,11.23
2023-03-29T07:18:00.019Z,8.40
2023-03-29T07:20:28.261Z,7.45
2023-03-29T07:22:56.066Z,8.90
2023-03-29T07:25:25.051Z,7.78
2023-03-29T07:27:54.568Z,7.00
2023-03-29T07:30:23.087Z,7.77
2023-03-29T07:32:52.349Z,7.97
2023-03-29T07:35:20.222Z,7.18
2023-03-29T07:37:47.825Z,6.78
2023-03-29T07:40:18.597Z,7.43
2023-03-29T07:42:46.963Z,8.03
2023-03-29T07:45:17.362Z,7.07
2023-03-29T07:47:45.021Z,5.28
2023-03-29T07:50:12.795Z,6.53
2023-03-29T07:52:40.395Z,5.20
2023-03-29T07:55:09.087Z,6.63
2023-03-29T07:57:37.013Z,3.83
2023-03-29T08:00:17.707Z,4.38
2023-03-29T08:02:47.613Z,7.10
2023-03-29T08:05:23.192Z,4.18
2023-03-29T08:07:57.300Z,4.23
2023-03-29T08:10:25.617Z,4.70
2023-03-29T08:12:54.524Z,4.63
2023-03-29T08:15:22.983Z,4.43
2023-03-29T08:17:52.676Z,5.18
2023-03-29T08:20:20.479Z,4.30
2023-03-29T08:22:48.916Z,4.93
2023-03-29T08:25:16.971Z,4.45
2023-03-29T08:27:44.775Z,7.70
2023-03-29T08:30:12.777Z,4.13
2023-03-29T08:32:40.895Z,6.20
2023-03-29T08:35:10.555Z,4.05
2023-03-29T08:37:38.762Z,4.68
2023-03-29T08:40:07.061Z,4.30
2023-03-29T08:42:41.920Z,4.47
2023-03-29T08:45:14.016Z,4.27
2023-03-29T08:47:46.273Z,3.72
2023-03-29T08:50:16.202Z,3.95
2023-03-29T08:52:46.956Z,3.83
2023-03-29T08:55:19.612Z,3.33
2023-03-29T08:57:48.711Z,3.27
2023-03-29T09:00:20.798Z,3.20
2023-03-29T09:02:49.428Z,3.60
2023-03-29T09:05:22.886Z,4.13
2023-03-29T09:07:50.697Z,3.70
2023-03-29T09:10:18.975Z,5.57
2023-03-29T09:12:54.849Z,3.20
2023-03-29T09:15:25.195Z,3.50
2023-03-29T09:17:57.671Z,4.57
2023-03-29T09:20:33.231Z,4.35
2023-03-29T09:23:12.538Z,5.47
2023-03-29T09:25:53.394Z,3.80
2023-03-29T09:28:23.685Z,4.43
2023-03-29T09:30:56.095Z,3.78
2023-03-29T09:33:25.980Z,4.78
2023-03-29T09:35:58.496Z,4.60
2023-03-29T09:38:26.387Z,3.97
2023-03-29T09:40:55.123Z,4.35
2023-03-29T09:43:27.330Z,4.68
2023-03-29T09:45:56.943Z,4.05
2023-03-29T09:48:26.161Z,4.43
2023-03-29T09:50:54.120Z,4.60
2023-03-29T09:53:24.312Z,5.28
2023-03-29T09:55:52.266Z,4.45
2023-03-29T09:58:21.273Z,4.05
2023-03-29T10:00:49.312Z,5.27
2023-03-29T10:03:21.159Z,3.90
2023-03-29T10:05:50.439Z,4.32
2023-03-29T10:08:22.336Z,4.25
2023-03-29T10:10:51.621Z,6.35
2023-03-29T10:13:23.898Z,4.40
2023-03-29T10:16:12.397Z,4.20
2023-03-29T10:18:41.598Z,4.50
2023-03-29T10:21:11.791Z,3.90
2023-03-29T10:23:39.633Z,4.32
2023-03-29T10:26:11.684Z,5.07
2023-03-29T10:28:40.090Z,6.18
2023-03-29T10:31:08.405Z,3.90
2023-03-29T10:33:37.010Z,4.43
2023-03-29T10:36:05.836Z,5.28
2023-03-29T10:38:36.354Z,4.73
2023-03-29T10:41:05.993Z,5.10
2023-03-29T10:43:38.666Z,5.07
2023-03-29T10:46:08.130Z,5.72
2023-03-29T10:48:36.293Z,4.60
2023-03-29T10:51:05.776Z,5.20
2023-03-29T10:53:34.556Z,4.80
2023-03-29T10:56:09.448Z,6.35
2023-03-29T10:58:44.888Z,4.53
2023-03-29T11:01:15.508Z,4.72
2023-03-29T11:03:55.940Z,5.40
2023-03-29T11:06:28.193Z,4.68
2023-03-29T11:08:58.430Z,4.82
2023-03-29T11:11:37.879Z,5.07
2023-03-29T11:14:09.294Z,5.35
2023-03-29T11:16:42.739Z,5.43
2023-03-29T11:19:30.375Z,5.25
2023-03-29T11:22:02.761Z,15.77
2023-03-29T11:24:39.235Z,7.25
2023-03-29T11:27:13.248Z,3.75
2023-03-29T11:29:44.990Z,8.67
2023-03-29T11:32:16.134Z,8.70
2023-03-29T11:34:50.754Z,5.53
2023-03-29T11:37:21.340Z,5.60
2023-03-29T11:39:54.906Z,4.60
2023-03-29T11:42:25.197Z,8.07
2023-03-29T11:44:55.752Z,6.72
2023-03-29T11:47:24.606Z,6.85
2023-03-29T11:49:54.659Z,10.52
2023-03-29T11:52:23.449Z,10.18
2023-03-29T11:54:53.301Z,7.53
2023-03-29T11:57:23.196Z,7.30
2023-03-29T11:59:54.031Z,7.18
2023-03-29T12:02:26.000Z,6.95
2023-03-29T12:04:55.840Z,7.97
2023-03-29T12:07:26.853Z,9.93
2023-03-29T12:09:58.005Z,7.15
2023-03-29T12:12:27.929Z,4.70
2023-03-29T12:14:59.692Z,4.68
2023-03-29T12:17:31.772Z,10.63
2023-03-29T12:20:05.324Z,7.90
2023-03-29T12:22:33.573Z,5.70
2023-03-29T12:25:01.671Z,6.55
2023-03-29T12:27:30.975Z,4.85
2023-03-29T12:30:13.836Z,7.15
2023-03-29T12:32:48.994Z,6.37
2023-03-29T12:35:22.220Z,10.27
2023-03-29T12:37:58.331Z,4.90
2023-03-29T12:40:28.520Z,5.50
2023-03-29T12:43:00.731Z,5.55
2023-03-29T12:45:33.186Z,4.93
2023-03-29T12:48:02.168Z,7.70
2023-03-29T12:50:35.222Z,4.07
2023-03-29T12:53:04.223Z,5.57
2023-03-29T12:55:33.346Z,5.78
2023-03-29T12:58:05.305Z,4.20
2023-03-29T13:00:33.907Z,5.55
2023-03-29T13:03:06.220Z,5.18
2023-03-29T13:05:36.195Z,7.53
2023-03-29T13:08:23.317Z,5.15
2023-03-29T13:10:53.770Z,7.83
2023-03-29T13:13:24.946Z,7.35
2023-03-29T13:15:52.627Z,5.55
2023-03-29T13:18:32.308Z,6.72
2023-03-29T13:21:04.911Z,5.00
2023-03-29T13:23:38.057Z,10.93
2023-03-29T13:26:21.943Z,8.60
2023-03-29T13:28:58.522Z,5.18
2023-03-29T13:31:34.772Z,5.20
2023-03-29T13:34:07.178Z,4.63
2023-03-29T13:36:44.144Z,5.77
2023-03-29T13:39:17.210Z,4.28
2023-03-29T13:41:47.960Z,3.28
2023-03-29T13:44:27.635Z,6.40
2023-03-29T13:47:06.547Z,3.92
2023-03-29T13:49:37.003Z,5.20
2023-03-29T13:52:16.262Z,6.20
2023-03-29T13:54:47.336Z,7.60
2023-03-29T13:57:17.693Z,3.90
2023-03-29T13:59:51.707Z,5.57
2023-03-29T14:02:23.042Z,4.07
2023-03-29T14:04:53.506Z,4.78
2023-03-29T14:07:26.201Z,3.58
2023-03-29T14:09:56.361Z,3.90
2023-03-29T14:12:24.792Z,4.95
2023-03-29T14:14:59.213Z,2.60
2023-03-29T14:17:27.922Z,3.17
2023-03-29T14:19:59.245Z,2.85
2023-03-29T14:22:30.547Z,3.25
2023-03-29T14:25:01.902Z,3.95
2023-03-29T14:27:31.180Z,3.27
2023-03-29T14:29:58.804Z,3.50
2023-03-29T14:32:29.513Z,4.15
2023-03-29T14:34:58.858Z,4.90
2023-03-29T14:37:27.809Z,4.85
2023-03-29T14:39:56.442Z,4.70
2023-03-29T14:42:26.880Z,4.05
2023-03-29T14:44:58.412Z,7.07
2023-03-29T14:47:28.195Z,7.72
2023-03-29T14:49:58.763Z,3.70
2023-03-29T14:52:28.905Z,5.97
2023-03-29T14:54:57.629Z,6.07
2023-03-29T14:57:28.349Z,4.65
2023-03-29T14:59:59.920Z,3.42
2023-03-29T15:02:29.496Z,3.78
2023-03-29T15:05:04.570Z,5.93
2023-03-29T15:07:34.692Z,4.55
2023-03-29T15:10:05.571Z,6.47
2023-03-29T15:12:35.990Z,5.50
2023-03-29T15:15:03.865Z,5.32
2023-03-29T15:17:46.994Z,9.47
2023-03-29T15:20:21.461Z,2.95
2023-03-29T15:22:57.914Z,3.47
2023-03-29T15:25:28.070Z,4.10
2023-03-29T15:27:59.043Z,4.55
2023-03-29T15:30:36.042Z,4.10
2023-03-29T15:33:14.095Z,6.95
2023-03-29T15:35:43.200Z,6.03
2023-03-29T15:38:13.268Z,6.93
2023-03-29T15:40:40.978Z,4.78
2023-03-29T15:43:08.832Z,7.70
2023-03-29T15:45:36.333Z,6.90
2023-03-29T15:48:04.716Z,5.20
2023-03-29T15:50:32.822Z,6.40
2023-03-29T15:53:14.188Z,6.07
2023-03-29T15:55:46.209Z,5.17
2023-03-29T15:58:15.082Z,7.40
2023-03-29T16:00:44.050Z,8.70
2023-03-29T16:03:16.640Z,9.75
2023-03-29T16:05:45.017Z,9.05
2023-03-29T16:08:13.180Z,9.53
2023-03-29T16:10:41.824Z,10.45
2023-03-29T16:13:13.050Z,8.20
2023-03-29T16:15:41.431Z,13.45
2023-03-29T16:18:09.244Z,8.38
2023-03-29T16:20:38.231Z,11.03
2023-03-29T16:23:09.221Z,9.75
2023-03-29T16:25:38.500Z,9.52
2023-03-29T16:28:06.411Z,6.45
2023-03-29T16:30:36.191Z,9.85
2023-03-29T16:33:06.485Z,7.47
2023-03-29T16:35:35.094Z,7.03
2023-03-29T16:38:02.771Z,8.15
2023-03-29T16:40:31.401Z,10.50
2023-03-29T16:42:59.303Z,6.57
2023-03-29T16:45:27.204Z,5.13
2023-03-29T16:47:56.966Z,7.50
2023-03-29T16:50:24.790Z,5.00
2023-03-29T16:52:52.632Z,6.32
2023-03-29T16:55:21.759Z,9.02
2023-03-29T16:57:50.877Z,5.70
2023-03-29T17:00:20.273Z,9.65
2023-03-29T17:02:50.465Z,8.75
2023-03-29T17:05:19.860Z,8.15
2023-03-29T17:07:48.143Z,5.53
2023-03-29T17:10:16.302Z,7.80
2023-03-29T17:12:43.904Z,7.60
2023-03-29T17:15:11.742Z,7.15
2023-03-29T17:17:40.430Z,6.32
2023-03-29T17:20:11.792Z,5.28
2023-03-29T17:22:41.031Z,6.03
2023-03-29T17:25:09.220Z,6.65
2023-03-29T17:27:37.360Z,8.35
2023-03-29T17:30:05.292Z,6.80
2023-03-29T17:32:33.123Z,5.32
2023-03-29T17:35:00.720Z,7.77
2023-03-29T17:37:28.973Z,8.43
2023-03-29T17:39:57.970Z,8.68
2023-03-29T17:42:25.731Z,7.10
2023-03-29T17:44:53.745Z,7.45
2023-03-29T17:47:21.343Z,5.20
2023-03-29T17:49:48.843Z,7.72
2023-03-29T17:52:17.041Z,6.13
2023-03-29T17:54:44.774Z,5.53
2023-03-29T17:57:13.834Z,7.32
2023-03-29T17:59:41.941Z,5.27
2023-03-29T18:02:10.958Z,6.32
2023-03-29T18:04:38.653Z,4.85
2023-03-29T18:07:06.216Z,4.57
2023-03-29T18:09:34.470Z,6.00
2023-03-29T18:12:02.318Z,5.30
2023-03-29T18:14:31.288Z,5.65
2023-03-29T18:16:58.964Z,3.83
2023-03-29T18:19:26.679Z,5.07
2023-03-29T18:21:54.269Z,6.72
2023-03-29T18:24:21.938Z,8.83
2023-03-29T18:26:49.531Z,3.75
2023-03-29T18:29:17.337Z,4.25
2023-03-29T18:31:46.961Z,4.00
2023-03-29T18:34:14.898Z,3.83
2023-03-29T18:36:42.573Z,2.60
2023-03-29T18:39:11.073Z,2.47
2023-03-29T18:41:38.664Z,3.47
2023-03-29T18:44:07.554Z,2.40
2023-03-29T18:46:35.297Z,3.05
2023-03-29T18:49:04.345Z,2.40
2023-03-29T18:51:33.013Z,2.65
2023-03-29T18:54:00.735Z,3.88
2023-03-29T18:56:28.743Z,4.38
2023-03-29T18:58:57.797Z,3.53
2023-03-29T19:01:25.970Z,3.60
2023-03-29T19:03:53.608Z,2.20
2023-03-29T19:06:23.406Z,5.65
2023-03-29T19:08:51.321Z,4.00
2023-03-29T19:11:18.991Z,1.70
2023-03-29T19:13:50.139Z,2.63
2023-03-29T19:16:18.359Z,3.17
2023-03-29T19:18:46.116Z,3.80
2023-03-29T19:21:13.903Z,2.42
2023-03-29T19:23:43.026Z,3.78
2023-03-29T19:26:12.136Z,2.23
2023-03-29T19:28:40.406Z,2.33
2023-03-29T19:31:08.028Z,2.72
2023-03-29T19:33:35.565Z,2.50
2023-03-29T19:36:03.438Z,2.13
2023-03-29T19:38:31.392Z,3.07
2023-03-29T19:41:00.544Z,4.00
2023-03-29T19:43:28.198Z,3.28
2023-03-29T19:45:56.298Z,3.08
2023-03-29T19:48:24.340Z,5.25
2023-03-29T19:50:52.373Z,3.23
2023-03-29T19:53:20.049Z,3.95
2023-03-29T19:55:48.699Z,5.65
2023-03-29T19:58:17.661Z,3.90
2023-03-29T20:00:45.326Z,5.85
2023-03-29T20:03:13.951Z,3.93
2023-03-29T20:05:42.349Z,5.80
2023-03-29T20:08:10.320Z,5.18
2023-03-29T20:10:38.081Z,4.18
2023-03-29T20:13:06.586Z,4.82
2023-03-29T20:15:36.007Z,4.63
2023-03-29T20:18:03.735Z,6.15
2023-03-29T20:20:31.735Z,5.03
2023-03-29T20:23:05.231Z,6.18
2023-03-29T20:25:33.387Z,10.05
2023-03-29T20:28:01.127Z,10.20
2023-03-29T20:30:28.978Z,4.90
2023-03-29T20:32:59.422Z,5.95
2023-03-29T20:35:27.913Z,5.63
2023-03-29T20:37:56.045Z,7.90
2023-03-29T20:40:23.743Z,7.37
2023-03-29T20:42:51.526Z,5.90
2023-03-29T20:45:22.277Z,7.13
2023-03-29T20:47:56.111Z,8.15
2023-03-29T20:50:26.892Z,8.88
2023-03-29T20:52:55.284Z,10.57
2023-03-29T20:55:24.435Z,5.35
2023-03-29T20:57:54.012Z,7.28
2023-03-29T21:00:22.412Z,8.73
2023-03-29T21:02:55.350Z,9.27
2023-03-29T21:05:26.615Z,7.40
2023-03-29T21:07:55.831Z,9.25
2023-03-29T21:10:24.118Z,6.28
2023-03-29T21:12:51.947Z,7.50
2023-03-29T21:15:19.908Z,3.05
2023-03-29T21:17:47.788Z,5.10
2023-03-29T21:20:16.108Z,6.93
2023-03-29T21:22:44.690Z,6.93
2023-03-29T21:25:16.387Z,4.97
2023-03-29T21:27:43.947Z,4.95
2023-03-29T21:30:11.868Z,4.20
2023-03-29T21:32:39.752Z,4.38
2023-03-29T21:35:07.944Z,6.80
2023-03-29T21:37:35.660Z,8.35
2023-03-29T21:40:06.057Z,8.13
2023-03-29T21:42:35.337Z,8.47
2023-03-29T21:45:03.285Z,3.45
2023-03-29T21:47:31.226Z,6.35
2023-03-29T21:49:58.960Z,12.35
2023-03-29T21:52:26.483Z,4.97
2023-03-29T21:54:54.227Z,6.60
2023-03-29T21:57:22.395Z,8.82
2023-03-29T21:59:51.414Z,9.38
2023-03-29T22:02:19.275Z,11.27
2023-03-29T22:04:46.957Z,10.15
2023-03-29T22:07:14.967Z,9.87
2023-03-29T22:09:43.580Z,8.18
2023-03-29T22:12:12.162Z,7.35
2023-03-29T22:14:39.672Z,10.60
2023-03-29T22:17:09.509Z,9.15
2023-03-29T22:19:39.736Z,5.43
2023-03-29T22:22:13.726Z,10.75
2023-03-29T22:24:42.828Z,9.65
2023-03-29T22:27:10.462Z,9.05
2023-03-29T22:29:38.100Z,10.32
2023-03-29T22:32:06.217Z,9.73
2023-03-29T22:34:35.578Z,10.52
2023-03-29T22:37:03.312Z,6.65
2023-03-29T22:39:30.943Z,13.82
2023-03-29T22:41:58.716Z,11.88
2023-03-29T22:44:27.072Z,11.70
2023-03-29T22:46:55.805Z,10.82
2023-03-29T22:49:23.380Z,10.57
2023-03-29T22:51:53.700Z,7.82
2023-03-29T22:54:21.423Z,10.25
2023-03-29T22:56:49.073Z,9.47
2023-03-29T22:59:17.120Z,12.43
2023-03-29T23:01:44.695Z,10.52
2023-03-29T23:04:12.442Z,12.82
2023-03-29T23:06:41.030Z,8.73
2023-03-29T23:09:10.547Z,12.37
2023-03-29T23:11:38.219Z,10.38
2023-03-29T23:14:06.021Z,7.82
2023-03-29T23:16:33.806Z,4.88
2023-03-29T23:19:02.720Z,8.30
2023-03-29T23:21:30.332Z,12.90
2023-03-29T23:23:58.304Z,7.32
2023-03-29T23:26:27.803Z,11.88
2023-03-29T23:28:57.582Z,11.65
2023-03-29T23:31:25.338Z,12.88
2023-03-29T23:33:53.343Z,12.73
2023-03-29T23:36:22.986Z,15.25
2023-03-29T23:38:50.533Z,6.15
2023-03-29T23:41:18.669Z,10.38
2023-03-29T23:43:48.489Z,11.07
2023-03-29T23:46:17.149Z,7.77
2023-03-29T23:48:45.772Z,11.23
2023-03-29T23:51:13.402Z,7.80
2023-03-29T23:53:42.536Z,12.80
2023-03-29T23:56:10.326Z,12.07
2023-03-29T23:58:39.225Z,10.90
